sensor_id;sensor_type;location;lat;lon;timestamp;temperature;humidity
11122;DHT22;5615;49.304;10.576;2022-12-07T00:01:46;1.70;99.90
11122;DHT22;5615;49.304;10.576;2022-12-07T00:04:14;1.70;99.90
11122;DHT22;5615;49.304;10.576;2022-12-07T00:06:43;1.70;99.90
11122;DHT22;5615;49.304;10.576;2022-12-07T00:09:12;1.70;99.90
11122;DHT22;5615;49.304;10.576;2022-12-07T00:11:39;1.70;99.90
11122;DHT22;5615;49.304;10.576;2022-12-07T00:14:09;1.70;99.90
11122;DHT22;5615;49.304;10.576;2022-12-07T00:16:36;1.70;99.90
11122;DHT22;5615;49.304;10.576;2022-12-07T00:19:04;1.70;99.90
11122;DHT22;5615;49.304;10.576;2022-12-07T00:21:32;1.70;99.90
11122;DHT22;5615;49.304;10.576;2022-12-07T00:24:00;1.80;99.90
11122;DHT22;5615;49.304;10.576;2022-12-07T00:26:30;1.70;99.90
11122;DHT22;5615;49.304;10.576;2022-12-07T00:28:59;1.70;99.90
11122;DHT22;5615;49.304;10.576;2022-12-07T00:31:28;1.80;99.90
11122;DHT22;5615;49.304;10.576;2022-12-07T00:33:55;1.70;99.90
11122;DHT22;5615;49.304;10.576;2022-12-07T00:36:23;1.70;99.90
11122;DHT22;5615;49.304;10.576;2022-12-07T00:38:50;1.70;99.90
11122;DHT22;5615;49.304;10.576;2022-12-07T00:41:18;1.70;99.90
11122;DHT22;5615;49.304;10.576;2022-12-07T00:43:47;1.70;99.90
11122;DHT22;5615;49.304;10.576;2022-12-07T00:46:15;1.70;99.90
11122;DHT22;5615;49.304;10.576;2022-12-07T00:48:42;1.70;99.90
11122;DHT22;5615;49.304;10.576;2022-12-07T00:51:10;1.70;99.90
11122;DHT22;5615;49.304;10.576;2022-12-07T00:53:38;1.70;99.90
11122;DHT22;5615;49.304;10.576;2022-12-07T00:56:05;1.70;99.90
11122;DHT22;5615;49.304;10.576;2022-12-07T00:58:32;1.70;99.90
11122;DHT22;5615;49.304;10.576;2022-12-07T01:01:02;1.70;99.90
11122;DHT22;5615;49.304;10.576;2022-12-07T01:03:29;1.70;99.90
11122;DHT22;5615;49.304;10.576;2022-12-07T01:05:56;1.70;99.90
11122;DHT22;5615;49.304;10.576;2022-12-07T01:08:24;1.70;99.90
11122;DHT22;5615;49.304;10.576;2022-12-07T01:10:59;1.70;99.90
11122;DHT22;5615;49.304;10.576;2022-12-07T01:13:26;1.70;99.90
11122;DHT22;5615;49.304;10.576;2022-12-07T01:15:57;1.70;99.90
11122;DHT22;5615;49.304;10.576;2022-12-07T01:18:26;1.70;99.90
11122;DHT22;5615;49.304;10.576;2022-12-07T01:21:00;1.70;99.90
11122;DHT22;5615;49.304;10.576;2022-12-07T01:23:28;1.70;99.90
11122;DHT22;5615;49.304;10.576;2022-12-07T01:25:56;1.70;99.90
11122;DHT22;5615;49.304;10.576;2022-12-07T01:28:22;1.70;99.90
11122;DHT22;5615;49.304;10.576;2022-12-07T01:31:00;1.70;99.90
11122;DHT22;5615;49.304;10.576;2022-12-07T01:33:29;1.70;99.90
11122;DHT22;5615;49.304;10.576;2022-12-07T01:36:01;1.70;99.90
11122;DHT22;5615;49.304;10.576;2022-12-07T01:38:28;1.70;99.90
11122;DHT22;5615;49.304;10.576;2022-12-07T01:40:55;1.70;99.90
11122;DHT22;5615;49.304;10.576;2022-12-07T01:43:24;1.60;99.90
11122;DHT22;5615;49.304;10.576;2022-12-07T01:45:52;1.60;99.90
11122;DHT22;5615;49.304;10.576;2022-12-07T01:48:21;1.60;99.90
11122;DHT22;5615;49.304;10.576;2022-12-07T01:50:51;1.60;99.90
11122;DHT22;5615;49.304;10.576;2022-12-07T01:53:19;1.70;99.90
11122;DHT22;5615;49.304;10.576;2022-12-07T01:55:49;1.70;99.90
11122;DHT22;5615;49.304;10.576;2022-12-07T01:58:17;1.70;99.90
11122;DHT22;5615;49.304;10.576;2022-12-07T02:00:43;1.70;99.90
11122;DHT22;5615;49.304;10.576;2022-12-07T02:03:15;1.60;99.90
11122;DHT22;5615;49.304;10.576;2022-12-07T02:05:43;1.60;99.90
11122;DHT22;5615;49.304;10.576;2022-12-07T02:08:12;1.70;99.90
11122;DHT22;5615;49.304;10.576;2022-12-07T02:10:39;1.60;99.90
11122;DHT22;5615;49.304;10.576;2022-12-07T02:13:10;1.70;99.90
11122;DHT22;5615;49.304;10.576;2022-12-07T02:15:59;1.60;99.90
11122;DHT22;5615;49.304;10.576;2022-12-07T02:18:38;1.60;99.90
11122;DHT22;5615;49.304;10.576;2022-12-07T02:21:08;1.60;99.90
11122;DHT22;5615;49.304;10.576;2022-12-07T02:23:58;1.60;99.90
11122;DHT22;5615;49.304;10.576;2022-12-07T02:29:34;1.60;99.90
11122;DHT22;5615;49.304;10.576;2022-12-07T02:32:08;1.60;99.90
11122;DHT22;5615;49.304;10.576;2022-12-07T02:34:44;1.60;99.90
11122;DHT22;5615;49.304;10.576;2022-12-07T02:37:21;1.60;99.90
11122;DHT22;5615;49.304;10.576;2022-12-07T02:39:54;1.60;99.90
11122;DHT22;5615;49.304;10.576;2022-12-07T02:42:27;1.60;99.90
11122;DHT22;5615;49.304;10.576;2022-12-07T02:44:56;1.60;99.90
11122;DHT22;5615;49.304;10.576;2022-12-07T02:47:24;1.50;99.90
11122;DHT22;5615;49.304;10.576;2022-12-07T02:49:52;1.50;99.90
11122;DHT22;5615;49.304;10.576;2022-12-07T02:52:19;1.40;99.90
11122;DHT22;5615;49.304;10.576;2022-12-07T02:54:45;1.40;99.90
11122;DHT22;5615;49.304;10.576;2022-12-07T02:57:24;1.20;99.90
11122;DHT22;5615;49.304;10.576;2022-12-07T03:00:00;1.10;99.90
11122;DHT22;5615;49.304;10.576;2022-12-07T03:02:34;1.10;99.90
11122;DHT22;5615;49.304;10.576;2022-12-07T03:05:31;1.00;99.90
11122;DHT22;5615;49.304;10.576;2022-12-07T03:08:02;0.90;99.90
11122;DHT22;5615;49.304;10.576;2022-12-07T03:10:38;0.90;99.90
11122;DHT22;5615;49.304;10.576;2022-12-07T03:13:10;0.80;99.90
11122;DHT22;5615;49.304;10.576;2022-12-07T03:15:43;0.80;99.90
11122;DHT22;5615;49.304;10.576;2022-12-07T03:18:16;0.70;99.90
11122;DHT22;5615;49.304;10.576;2022-12-07T03:20:44;0.70;99.90
11122;DHT22;5615;49.304;10.576;2022-12-07T03:23:12;0.80;99.90
11122;DHT22;5615;49.304;10.576;2022-12-07T03:25:41;0.70;99.90
11122;DHT22;5615;49.304;10.576;2022-12-07T03:28:10;0.70;99.90
11122;DHT22;5615;49.304;10.576;2022-12-07T03:30:45;0.70;99.90
11122;DHT22;5615;49.304;10.576;2022-12-07T03:33:18;0.70;99.90
11122;DHT22;5615;49.304;10.576;2022-12-07T03:35:51;0.60;99.90
11122;DHT22;5615;49.304;10.576;2022-12-07T03:38:21;0.60;99.90
11122;DHT22;5615;49.304;10.576;2022-12-07T03:40:54;0.50;99.90
11122;DHT22;5615;49.304;10.576;2022-12-07T03:43:24;0.60;99.90
11122;DHT22;5615;49.304;10.576;2022-12-07T03:46:00;0.60;99.90
11122;DHT22;5615;49.304;10.576;2022-12-07T03:48:34;0.50;99.90
11122;DHT22;5615;49.304;10.576;2022-12-07T03:51:08;0.60;99.90
11122;DHT22;5615;49.304;10.576;2022-12-07T03:53:42;0.70;99.90
11122;DHT22;5615;49.304;10.576;2022-12-07T03:56:11;0.70;99.90
11122;DHT22;5615;49.304;10.576;2022-12-07T03:58:39;0.70;99.90
11122;DHT22;5615;49.304;10.576;2022-12-07T04:01:07;0.70;99.90
11122;DHT22;5615;49.304;10.576;2022-12-07T04:03:34;0.70;99.90
11122;DHT22;5615;49.304;10.576;2022-12-07T04:06:01;0.70;99.90
11122;DHT22;5615;49.304;10.576;2022-12-07T04:08:28;0.70;99.90
11122;DHT22;5615;49.304;10.576;2022-12-07T04:10:54;0.70;99.90
11122;DHT22;5615;49.304;10.576;2022-12-07T04:13:21;0.70;99.90
11122;DHT22;5615;49.304;10.576;2022-12-07T04:15:47;0.60;99.90
11122;DHT22;5615;49.304;10.576;2022-12-07T04:18:15;0.70;99.90
11122;DHT22;5615;49.304;10.576;2022-12-07T04:20:42;0.70;99.90
11122;DHT22;5615;49.304;10.576;2022-12-07T04:23:09;0.60;99.90
11122;DHT22;5615;49.304;10.576;2022-12-07T04:25:35;0.60;99.90
11122;DHT22;5615;49.304;10.576;2022-12-07T04:28:02;0.60;99.90
11122;DHT22;5615;49.304;10.576;2022-12-07T04:30:30;0.60;99.90
11122;DHT22;5615;49.304;10.576;2022-12-07T04:32:56;0.60;99.90
11122;DHT22;5615;49.304;10.576;2022-12-07T04:35:24;0.60;99.90
11122;DHT22;5615;49.304;10.576;2022-12-07T04:37:51;0.70;99.90
11122;DHT22;5615;49.304;10.576;2022-12-07T04:40:18;0.70;99.90
11122;DHT22;5615;49.304;10.576;2022-12-07T04:42:44;0.70;99.90
11122;DHT22;5615;49.304;10.576;2022-12-07T04:45:11;0.70;99.90
11122;DHT22;5615;49.304;10.576;2022-12-07T04:47:37;0.70;99.90
11122;DHT22;5615;49.304;10.576;2022-12-07T04:50:05;0.70;99.90
11122;DHT22;5615;49.304;10.576;2022-12-07T04:52:33;0.70;99.90
11122;DHT22;5615;49.304;10.576;2022-12-07T04:55:00;0.70;99.90
11122;DHT22;5615;49.304;10.576;2022-12-07T04:57:27;0.70;99.90
11122;DHT22;5615;49.304;10.576;2022-12-07T04:59:53;0.70;99.90
11122;DHT22;5615;49.304;10.576;2022-12-07T05:02:20;0.70;99.90
11122;DHT22;5615;49.304;10.576;2022-12-07T05:04:47;0.70;99.90
11122;DHT22;5615;49.304;10.576;2022-12-07T05:07:13;0.80;99.90
11122;DHT22;5615;49.304;10.576;2022-12-07T05:09:41;0.70;99.90
11122;DHT22;5615;49.304;10.576;2022-12-07T05:12:08;0.80;99.90
11122;DHT22;5615;49.304;10.576;2022-12-07T05:14:35;0.80;99.90
11122;DHT22;5615;49.304;10.576;2022-12-07T05:17:02;0.80;99.90
11122;DHT22;5615;49.304;10.576;2022-12-07T05:19:29;0.80;99.90
11122;DHT22;5615;49.304;10.576;2022-12-07T05:21:56;0.80;99.90
11122;DHT22;5615;49.304;10.576;2022-12-07T05:24:23;0.90;99.90
11122;DHT22;5615;49.304;10.576;2022-12-07T05:26:50;0.90;99.90
11122;DHT22;5615;49.304;10.576;2022-12-07T05:29:17;0.90;99.90
11122;DHT22;5615;49.304;10.576;2022-12-07T05:31:44;0.90;99.90
11122;DHT22;5615;49.304;10.576;2022-12-07T05:34:11;0.90;99.90
11122;DHT22;5615;49.304;10.576;2022-12-07T05:36:38;0.90;99.90
11122;DHT22;5615;49.304;10.576;2022-12-07T05:39:05;0.90;99.90
11122;DHT22;5615;49.304;10.576;2022-12-07T05:41:32;0.90;99.90
11122;DHT22;5615;49.304;10.576;2022-12-07T05:44:18;1.00;99.90
11122;DHT22;5615;49.304;10.576;2022-12-07T05:46:44;1.00;99.90
11122;DHT22;5615;49.304;10.576;2022-12-07T05:49:11;1.00;99.90
11122;DHT22;5615;49.304;10.576;2022-12-07T05:51:38;1.00;99.90
11122;DHT22;5615;49.304;10.576;2022-12-07T05:54:04;1.00;99.90
11122;DHT22;5615;49.304;10.576;2022-12-07T05:56:31;1.10;99.90
11122;DHT22;5615;49.304;10.576;2022-12-07T05:58:58;1.10;99.90
11122;DHT22;5615;49.304;10.576;2022-12-07T06:01:43;1.10;99.90
11122;DHT22;5615;49.304;10.576;2022-12-07T06:04:10;1.10;99.90
11122;DHT22;5615;49.304;10.576;2022-12-07T06:06:37;1.10;99.90
11122;DHT22;5615;49.304;10.576;2022-12-07T06:09:04;1.10;99.90
11122;DHT22;5615;49.304;10.576;2022-12-07T06:11:30;1.10;99.90
11122;DHT22;5615;49.304;10.576;2022-12-07T06:14:15;1.10;99.90
11122;DHT22;5615;49.304;10.576;2022-12-07T06:16:43;1.20;99.90
11122;DHT22;5615;49.304;10.576;2022-12-07T06:19:10;1.20;99.90
11122;DHT22;5615;49.304;10.576;2022-12-07T06:21:36;1.20;99.90
11122;DHT22;5615;49.304;10.576;2022-12-07T06:24:03;1.30;99.90
11122;DHT22;5615;49.304;10.576;2022-12-07T06:26:30;1.30;99.90
11122;DHT22;5615;49.304;10.576;2022-12-07T06:28:57;1.30;99.90
11122;DHT22;5615;49.304;10.576;2022-12-07T06:31:23;1.30;99.90
11122;DHT22;5615;49.304;10.576;2022-12-07T06:33:51;1.30;99.90
11122;DHT22;5615;49.304;10.576;2022-12-07T06:36:22;1.30;99.90
11122;DHT22;5615;49.304;10.576;2022-12-07T06:38:49;1.30;99.90
11122;DHT22;5615;49.304;10.576;2022-12-07T06:41:16;1.30;99.90
11122;DHT22;5615;49.304;10.576;2022-12-07T06:43:42;1.30;99.90
11122;DHT22;5615;49.304;10.576;2022-12-07T06:46:09;1.40;99.90
11122;DHT22;5615;49.304;10.576;2022-12-07T06:48:36;1.40;99.90
11122;DHT22;5615;49.304;10.576;2022-12-07T06:51:04;1.40;99.90
11122;DHT22;5615;49.304;10.576;2022-12-07T06:53:31;1.40;99.90
11122;DHT22;5615;49.304;10.576;2022-12-07T06:55:57;1.40;99.90
11122;DHT22;5615;49.304;10.576;2022-12-07T06:58:24;1.40;99.90
11122;DHT22;5615;49.304;10.576;2022-12-07T07:00:51;1.40;99.90
11122;DHT22;5615;49.304;10.576;2022-12-07T07:03:17;1.40;99.90
11122;DHT22;5615;49.304;10.576;2022-12-07T07:05:44;1.50;99.90
11122;DHT22;5615;49.304;10.576;2022-12-07T07:08:13;1.50;99.90
11122;DHT22;5615;49.304;10.576;2022-12-07T07:10:40;1.40;99.90
11122;DHT22;5615;49.304;10.576;2022-12-07T07:13:07;1.50;99.90
11122;DHT22;5615;49.304;10.576;2022-12-07T07:15:34;1.50;99.90
11122;DHT22;5615;49.304;10.576;2022-12-07T07:18:01;1.50;99.90
11122;DHT22;5615;49.304;10.576;2022-12-07T07:20:28;1.50;99.90
11122;DHT22;5615;49.304;10.576;2022-12-07T07:22:55;1.50;99.90
11122;DHT22;5615;49.304;10.576;2022-12-07T07:25:23;1.50;99.90
11122;DHT22;5615;49.304;10.576;2022-12-07T07:27:50;1.50;99.90
11122;DHT22;5615;49.304;10.576;2022-12-07T07:30:16;1.60;99.90
11122;DHT22;5615;49.304;10.576;2022-12-07T07:32:43;1.50;99.90
11122;DHT22;5615;49.304;10.576;2022-12-07T07:35:10;1.60;99.90
11122;DHT22;5615;49.304;10.576;2022-12-07T07:37:36;1.60;99.90
11122;DHT22;5615;49.304;10.576;2022-12-07T07:40:04;1.60;99.90
11122;DHT22;5615;49.304;10.576;2022-12-07T07:42:32;1.60;99.90
11122;DHT22;5615;49.304;10.576;2022-12-07T07:44:59;1.60;99.90
11122;DHT22;5615;49.304;10.576;2022-12-07T07:47:25;1.60;99.90
11122;DHT22;5615;49.304;10.576;2022-12-07T07:49:52;1.70;99.90
11122;DHT22;5615;49.304;10.576;2022-12-07T07:52:18;1.60;99.90
11122;DHT22;5615;49.304;10.576;2022-12-07T07:54:45;1.60;99.90
11122;DHT22;5615;49.304;10.576;2022-12-07T07:57:12;1.70;99.90
11122;DHT22;5615;49.304;10.576;2022-12-07T07:59:40;1.70;99.90
11122;DHT22;5615;49.304;10.576;2022-12-07T08:02:09;1.70;99.90
11122;DHT22;5615;49.304;10.576;2022-12-07T08:04:39;1.80;99.90
11122;DHT22;5615;49.304;10.576;2022-12-07T08:07:06;1.70;99.90
11122;DHT22;5615;49.304;10.576;2022-12-07T08:09:33;1.80;99.90
11122;DHT22;5615;49.304;10.576;2022-12-07T08:11:59;1.90;99.90
11122;DHT22;5615;49.304;10.576;2022-12-07T08:14:26;1.90;99.90
11122;DHT22;5615;49.304;10.576;2022-12-07T08:16:55;1.90;99.90
11122;DHT22;5615;49.304;10.576;2022-12-07T08:19:22;1.90;99.90
11122;DHT22;5615;49.304;10.576;2022-12-07T08:21:49;1.90;99.90
11122;DHT22;5615;49.304;10.576;2022-12-07T08:24:16;2.00;99.90
11122;DHT22;5615;49.304;10.576;2022-12-07T08:26:42;2.10;99.90
11122;DHT22;5615;49.304;10.576;2022-12-07T08:29:09;2.10;99.90
11122;DHT22;5615;49.304;10.576;2022-12-07T08:31:36;2.10;99.90
11122;DHT22;5615;49.304;10.576;2022-12-07T08:34:04;2.20;99.90
11122;DHT22;5615;49.304;10.576;2022-12-07T08:36:30;2.20;99.90
11122;DHT22;5615;49.304;10.576;2022-12-07T08:38:58;2.20;99.90
11122;DHT22;5615;49.304;10.576;2022-12-07T08:41:25;2.20;99.90
11122;DHT22;5615;49.304;10.576;2022-12-07T08:43:52;2.20;99.90
11122;DHT22;5615;49.304;10.576;2022-12-07T08:46:21;2.30;99.90
11122;DHT22;5615;49.304;10.576;2022-12-07T08:48:52;2.30;99.90
11122;DHT22;5615;49.304;10.576;2022-12-07T08:51:21;2.30;99.90
11122;DHT22;5615;49.304;10.576;2022-12-07T08:53:48;2.30;99.90
11122;DHT22;5615;49.304;10.576;2022-12-07T08:56:15;2.30;99.90
11122;DHT22;5615;49.304;10.576;2022-12-07T08:58:42;2.20;99.90
11122;DHT22;5615;49.304;10.576;2022-12-07T09:01:10;2.30;99.90
11122;DHT22;5615;49.304;10.576;2022-12-07T09:03:36;2.20;99.90
11122;DHT22;5615;49.304;10.576;2022-12-07T09:06:03;2.20;99.90
11122;DHT22;5615;49.304;10.576;2022-12-07T09:08:34;2.30;99.90
11122;DHT22;5615;49.304;10.576;2022-12-07T09:11:02;2.30;99.90
11122;DHT22;5615;49.304;10.576;2022-12-07T09:13:29;2.40;99.90
11122;DHT22;5615;49.304;10.576;2022-12-07T09:15:56;2.30;99.90
11122;DHT22;5615;49.304;10.576;2022-12-07T09:18:22;2.30;99.90
11122;DHT22;5615;49.304;10.576;2022-12-07T09:20:50;2.30;99.90
11122;DHT22;5615;49.304;10.576;2022-12-07T09:23:17;2.40;99.90
11122;DHT22;5615;49.304;10.576;2022-12-07T09:25:45;2.40;99.90
11122;DHT22;5615;49.304;10.576;2022-12-07T09:28:12;2.30;99.90
11122;DHT22;5615;49.304;10.576;2022-12-07T09:30:38;2.40;99.90
11122;DHT22;5615;49.304;10.576;2022-12-07T09:33:05;2.40;99.90
11122;DHT22;5615;49.304;10.576;2022-12-07T09:35:31;2.40;99.90
11122;DHT22;5615;49.304;10.576;2022-12-07T09:37:58;2.50;99.90
11122;DHT22;5615;49.304;10.576;2022-12-07T09:40:25;2.50;99.90
11122;DHT22;5615;49.304;10.576;2022-12-07T09:42:54;2.50;99.90
11122;DHT22;5615;49.304;10.576;2022-12-07T09:45:23;2.50;99.90
11122;DHT22;5615;49.304;10.576;2022-12-07T09:47:50;2.50;99.90
11122;DHT22;5615;49.304;10.576;2022-12-07T09:50:20;2.50;99.90
11122;DHT22;5615;49.304;10.576;2022-12-07T09:52:47;2.50;99.90
11122;DHT22;5615;49.304;10.576;2022-12-07T09:55:16;2.40;99.90
11122;DHT22;5615;49.304;10.576;2022-12-07T09:57:46;2.40;99.90
11122;DHT22;5615;49.304;10.576;2022-12-07T10:00:17;2.50;99.90
11122;DHT22;5615;49.304;10.576;2022-12-07T10:02:46;2.60;99.90
11122;DHT22;5615;49.304;10.576;2022-12-07T10:05:15;2.60;99.90
11122;DHT22;5615;49.304;10.576;2022-12-07T10:07:42;2.50;99.90
11122;DHT22;5615;49.304;10.576;2022-12-07T10:10:15;2.50;99.90
11122;DHT22;5615;49.304;10.576;2022-12-07T10:12:55;2.60;99.90
11122;DHT22;5615;49.304;10.576;2022-12-07T10:15:23;2.60;99.90
11122;DHT22;5615;49.304;10.576;2022-12-07T10:18:17;2.50;99.90
11122;DHT22;5615;49.304;10.576;2022-12-07T10:20:45;2.60;99.90
11122;DHT22;5615;49.304;10.576;2022-12-07T10:23:15;2.50;99.90
11122;DHT22;5615;49.304;10.576;2022-12-07T10:25:42;2.50;99.90
11122;DHT22;5615;49.304;10.576;2022-12-07T10:28:13;2.50;99.90
11122;DHT22;5615;49.304;10.576;2022-12-07T10:30:53;2.40;99.90
11122;DHT22;5615;49.304;10.576;2022-12-07T10:33:48;2.40;99.90
11122;DHT22;5615;49.304;10.576;2022-12-07T10:36:19;2.50;99.90
11122;DHT22;5615;49.304;10.576;2022-12-07T10:38:48;2.50;99.90
11122;DHT22;5615;49.304;10.576;2022-12-07T10:41:15;2.50;99.90
11122;DHT22;5615;49.304;10.576;2022-12-07T10:43:50;2.50;99.90
11122;DHT22;5615;49.304;10.576;2022-12-07T10:46:37;2.60;99.90
11122;DHT22;5615;49.304;10.576;2022-12-07T10:49:20;2.60;99.90
11122;DHT22;5615;49.304;10.576;2022-12-07T10:51:54;2.50;99.90
11122;DHT22;5615;49.304;10.576;2022-12-07T10:54:32;2.40;99.90
11122;DHT22;5615;49.304;10.576;2022-12-07T10:57:24;2.40;99.90
11122;DHT22;5615;49.304;10.576;2022-12-07T11:00:08;2.40;99.90
11122;DHT22;5615;49.304;10.576;2022-12-07T11:02:55;2.40;99.90
11122;DHT22;5615;49.304;10.576;2022-12-07T11:05:29;2.40;99.90
11122;DHT22;5615;49.304;10.576;2022-12-07T11:08:03;2.40;99.90
11122;DHT22;5615;49.304;10.576;2022-12-07T11:10:39;2.50;99.90
11122;DHT22;5615;49.304;10.576;2022-12-07T11:13:28;2.50;99.90
11122;DHT22;5615;49.304;10.576;2022-12-07T11:16:07;2.50;99.90
11122;DHT22;5615;49.304;10.576;2022-12-07T11:18:43;2.50;99.90
11122;DHT22;5615;49.304;10.576;2022-12-07T11:21:19;2.60;99.90
11122;DHT22;5615;49.304;10.576;2022-12-07T11:23:51;2.60;99.90
11122;DHT22;5615;49.304;10.576;2022-12-07T11:26:29;2.60;99.90
11122;DHT22;5615;49.304;10.576;2022-12-07T11:29:19;2.60;99.90
11122;DHT22;5615;49.304;10.576;2022-12-07T11:31:57;2.60;99.90
11122;DHT22;5615;49.304;10.576;2022-12-07T11:34:35;2.70;99.90
11122;DHT22;5615;49.304;10.576;2022-12-07T11:37:09;2.70;99.90
11122;DHT22;5615;49.304;10.576;2022-12-07T11:39:42;2.60;99.90
11122;DHT22;5615;49.304;10.576;2022-12-07T11:42:15;2.60;99.90
11122;DHT22;5615;49.304;10.576;2022-12-07T11:44:50;2.60;99.90
11122;DHT22;5615;49.304;10.576;2022-12-07T11:47:25;2.50;99.90
11122;DHT22;5615;49.304;10.576;2022-12-07T11:49:58;2.60;99.90
11122;DHT22;5615;49.304;10.576;2022-12-07T11:52:41;2.70;99.90
11122;DHT22;5615;49.304;10.576;2022-12-07T11:55:25;2.70;99.90
11122;DHT22;5615;49.304;10.576;2022-12-07T11:58:00;2.60;99.90
11122;DHT22;5615;49.304;10.576;2022-12-07T12:00:29;2.60;99.90
11122;DHT22;5615;49.304;10.576;2022-12-07T12:02:59;2.60;99.90
11122;DHT22;5615;49.304;10.576;2022-12-07T12:05:29;2.60;99.90
11122;DHT22;5615;49.304;10.576;2022-12-07T12:08:02;2.50;99.90
11122;DHT22;5615;49.304;10.576;2022-12-07T12:10:37;2.50;99.90
11122;DHT22;5615;49.304;10.576;2022-12-07T12:13:29;2.60;99.90
11122;DHT22;5615;49.304;10.576;2022-12-07T12:16:20;2.50;99.90
11122;DHT22;5615;49.304;10.576;2022-12-07T12:19:04;2.40;99.90
11122;DHT22;5615;49.304;10.576;2022-12-07T12:21:39;2.40;99.90
11122;DHT22;5615;49.304;10.576;2022-12-07T12:24:11;2.50;99.90
11122;DHT22;5615;49.304;10.576;2022-12-07T12:26:48;2.50;99.90
11122;DHT22;5615;49.304;10.576;2022-12-07T12:29:23;2.50;99.90
11122;DHT22;5615;49.304;10.576;2022-12-07T12:32:12;2.60;99.90
11122;DHT22;5615;49.304;10.576;2022-12-07T12:34:41;2.70;99.90
11122;DHT22;5615;49.304;10.576;2022-12-07T12:37:40;2.60;99.90
11122;DHT22;5615;49.304;10.576;2022-12-07T12:40:41;2.60;99.90
11122;DHT22;5615;49.304;10.576;2022-12-07T12:43:42;2.60;99.90
11122;DHT22;5615;49.304;10.576;2022-12-07T12:46:37;2.60;99.90
11122;DHT22;5615;49.304;10.576;2022-12-07T12:49:33;2.60;99.90
11122;DHT22;5615;49.304;10.576;2022-12-07T12:52:01;2.70;99.90
11122;DHT22;5615;49.304;10.576;2022-12-07T12:55:00;2.60;99.90
11122;DHT22;5615;49.304;10.576;2022-12-07T12:57:28;2.70;99.90
11122;DHT22;5615;49.304;10.576;2022-12-07T12:59:57;2.60;99.90
11122;DHT22;5615;49.304;10.576;2022-12-07T13:02:26;2.70;99.90
11122;DHT22;5615;49.304;10.576;2022-12-07T13:04:55;2.70;99.90
11122;DHT22;5615;49.304;10.576;2022-12-07T13:07:51;2.80;99.90
11122;DHT22;5615;49.304;10.576;2022-12-07T13:10:38;2.80;99.90
11122;DHT22;5615;49.304;10.576;2022-12-07T13:13:29;2.80;99.90
11122;DHT22;5615;49.304;10.576;2022-12-07T13:18:56;2.70;99.90
11122;DHT22;5615;49.304;10.576;2022-12-07T13:21:43;2.70;99.90
11122;DHT22;5615;49.304;10.576;2022-12-07T13:24:12;2.80;99.90
11122;DHT22;5615;49.304;10.576;2022-12-07T13:26:42;2.80;99.90
11122;DHT22;5615;49.304;10.576;2022-12-07T13:29:12;2.90;99.90
11122;DHT22;5615;49.304;10.576;2022-12-07T13:31:40;2.90;99.90
11122;DHT22;5615;49.304;10.576;2022-12-07T13:34:29;2.90;99.90
11122;DHT22;5615;49.304;10.576;2022-12-07T13:36:56;2.90;99.90
11122;DHT22;5615;49.304;10.576;2022-12-07T13:39:24;2.80;99.90
11122;DHT22;5615;49.304;10.576;2022-12-07T13:41:53;2.80;99.90
11122;DHT22;5615;49.304;10.576;2022-12-07T13:44:22;2.80;99.90
11122;DHT22;5615;49.304;10.576;2022-12-07T13:46:54;2.80;99.90
11122;DHT22;5615;49.304;10.576;2022-12-07T13:49:23;2.80;99.90
11122;DHT22;5615;49.304;10.576;2022-12-07T13:51:51;2.80;99.90
11122;DHT22;5615;49.304;10.576;2022-12-07T13:54:18;2.70;99.90
11122;DHT22;5615;49.304;10.576;2022-12-07T13:56:48;2.70;99.90
11122;DHT22;5615;49.304;10.576;2022-12-07T13:59:18;2.70;99.90
11122;DHT22;5615;49.304;10.576;2022-12-07T14:01:47;2.70;99.90
11122;DHT22;5615;49.304;10.576;2022-12-07T14:04:32;2.70;99.90
11122;DHT22;5615;49.304;10.576;2022-12-07T14:07:00;2.70;99.90
11122;DHT22;5615;49.304;10.576;2022-12-07T14:09:28;2.70;99.90
11122;DHT22;5615;49.304;10.576;2022-12-07T14:11:57;2.60;99.90
11122;DHT22;5615;49.304;10.576;2022-12-07T14:14:27;2.60;99.90
11122;DHT22;5615;49.304;10.576;2022-12-07T14:17:01;2.70;99.90
11122;DHT22;5615;49.304;10.576;2022-12-07T14:19:47;2.70;99.90
11122;DHT22;5615;49.304;10.576;2022-12-07T14:22:30;2.70;99.90
11122;DHT22;5615;49.304;10.576;2022-12-07T14:25:01;2.70;99.90
11122;DHT22;5615;49.304;10.576;2022-12-07T14:27:35;2.60;99.90
11122;DHT22;5615;49.304;10.576;2022-12-07T14:30:05;2.60;99.90
11122;DHT22;5615;49.304;10.576;2022-12-07T14:32:34;2.60;99.90
11122;DHT22;5615;49.304;10.576;2022-12-07T14:35:07;2.60;99.90
11122;DHT22;5615;49.304;10.576;2022-12-07T14:37:36;2.60;99.90
11122;DHT22;5615;49.304;10.576;2022-12-07T14:40:03;2.60;99.90
11122;DHT22;5615;49.304;10.576;2022-12-07T14:42:31;2.60;99.90
11122;DHT22;5615;49.304;10.576;2022-12-07T14:44:59;2.60;99.90
11122;DHT22;5615;49.304;10.576;2022-12-07T14:47:27;2.60;99.90
11122;DHT22;5615;49.304;10.576;2022-12-07T14:49:53;2.60;99.90
11122;DHT22;5615;49.304;10.576;2022-12-07T14:52:23;2.60;99.90
11122;DHT22;5615;49.304;10.576;2022-12-07T14:54:51;2.60;99.90
11122;DHT22;5615;49.304;10.576;2022-12-07T14:57:18;2.60;99.90
11122;DHT22;5615;49.304;10.576;2022-12-07T14:59:44;2.60;99.90
11122;DHT22;5615;49.304;10.576;2022-12-07T15:02:12;2.60;99.90
11122;DHT22;5615;49.304;10.576;2022-12-07T15:04:41;2.60;99.90
11122;DHT22;5615;49.304;10.576;2022-12-07T15:07:12;2.60;99.90
11122;DHT22;5615;49.304;10.576;2022-12-07T15:09:41;2.60;99.90
11122;DHT22;5615;49.304;10.576;2022-12-07T15:12:07;2.60;99.90
11122;DHT22;5615;49.304;10.576;2022-12-07T15:14:34;2.50;99.90
11122;DHT22;5615;49.304;10.576;2022-12-07T15:17:01;2.50;99.90
11122;DHT22;5615;49.304;10.576;2022-12-07T15:19:27;2.50;99.90
11122;DHT22;5615;49.304;10.576;2022-12-07T15:21:56;2.50;99.90
11122;DHT22;5615;49.304;10.576;2022-12-07T15:24:23;2.50;99.90
11122;DHT22;5615;49.304;10.576;2022-12-07T15:26:50;2.50;99.90
11122;DHT22;5615;49.304;10.576;2022-12-07T15:29:17;2.50;99.90
11122;DHT22;5615;49.304;10.576;2022-12-07T15:31:44;2.50;99.90
11122;DHT22;5615;49.304;10.576;2022-12-07T15:34:11;2.50;99.90
11122;DHT22;5615;49.304;10.576;2022-12-07T15:36:37;2.50;99.90
11122;DHT22;5615;49.304;10.576;2022-12-07T15:39:05;2.40;99.90
11122;DHT22;5615;49.304;10.576;2022-12-07T15:41:32;2.40;99.90
11122;DHT22;5615;49.304;10.576;2022-12-07T15:43:59;2.40;99.90
11122;DHT22;5615;49.304;10.576;2022-12-07T15:46:43;2.40;99.90
11122;DHT22;5615;49.304;10.576;2022-12-07T15:49:12;2.40;99.90
11122;DHT22;5615;49.304;10.576;2022-12-07T15:51:40;2.40;99.90
11122;DHT22;5615;49.304;10.576;2022-12-07T15:54:11;2.30;99.90
11122;DHT22;5615;49.304;10.576;2022-12-07T15:56:38;2.30;99.90
11122;DHT22;5615;49.304;10.576;2022-12-07T15:59:04;2.30;99.90
11122;DHT22;5615;49.304;10.576;2022-12-07T16:01:31;2.30;99.90
11122;DHT22;5615;49.304;10.576;2022-12-07T16:03:58;2.30;99.90
11122;DHT22;5615;49.304;10.576;2022-12-07T16:06:25;2.30;99.90
11122;DHT22;5615;49.304;10.576;2022-12-07T16:08:52;2.30;99.90
11122;DHT22;5615;49.304;10.576;2022-12-07T16:11:20;2.30;99.90
11122;DHT22;5615;49.304;10.576;2022-12-07T16:13:47;2.30;99.90